Bailey, South Dakota
Current Conditions -  °F | °C
As of 11:15 PM on Tuesday 25 Nov 2014 (Local Time) from K9V9 Reporting Station
Overcast Overcast  
Wind Chill: 28°   Ceiling: 2900
Heat Index: 36°   Visibility: 10mi
Dew Point: 31°   Wind: 12mph
Humidity: 82%   Direction: 300°WNW
Pressure: 29.84"   Gusts: NA
Location:  44.0336°N, 98.9907°W
Report Text: K9V9 260515Z AUTO 30010KT 10SM BKN029 OVC038 02/00 A2984 RMK AO2 T00221005
Loading
Personal Weather Stations






























Interactive Weather Map New forecast layout! Learn more

10-Day Weather Forecast

Advertisements
Track Severe Weather on mobile